createdAt,value
2023-12-13T00:02:14.741Z,25.33
2023-12-13T00:04:41.370Z,26.00
2023-12-13T00:07:08.155Z,24.77
2023-12-13T00:09:35.184Z,24.38
2023-12-13T00:12:01.748Z,21.98
2023-12-13T00:14:28.302Z,28.17
2023-12-13T00:16:54.936Z,22.15
2023-12-13T00:19:22.248Z,22.23
2023-12-13T00:21:49.398Z,23.30
2023-12-13T00:24:15.959Z,24.80
2023-12-13T00:26:42.550Z,20.17
2023-12-13T00:29:09.901Z,19.38
2023-12-13T00:31:36.921Z,19.77
2023-12-13T00:34:04.511Z,19.70
2023-12-13T00:36:31.199Z,18.05
2023-12-13T00:38:58.374Z,18.92
2023-12-13T00:41:25.640Z,17.60
2023-12-13T00:43:52.385Z,16.50
2023-12-13T00:46:21.672Z,16.50
2023-12-13T00:48:49.041Z,15.75
2023-12-13T00:51:23.122Z,12.57
2023-12-13T00:53:50.464Z,14.35
2023-12-13T00:56:17.138Z,13.32
2023-12-13T00:58:44.404Z,12.45
2023-12-13T01:01:11.533Z,12.70
2023-12-13T01:03:38.388Z,10.30
2023-12-13T01:06:10.408Z,8.52
2023-12-13T01:08:38.419Z,12.73
2023-12-13T01:11:13.728Z,12.07
2023-12-13T01:13:40.378Z,10.85
2023-12-13T01:16:07.257Z,8.30
2023-12-13T01:18:34.107Z,8.23
2023-12-13T01:21:00.860Z,6.32
2023-12-13T01:23:28.328Z,8.35
2023-12-13T01:25:54.902Z,10.40
2023-12-13T01:28:22.022Z,9.50
2023-12-13T01:30:48.701Z,12.85
2023-12-13T01:33:15.405Z,9.00
2023-12-13T01:35:42.057Z,15.02
2023-12-13T01:38:08.705Z,13.75
2023-12-13T01:40:35.296Z,7.55
2023-12-13T01:43:01.919Z,10.65
2023-12-13T01:45:28.542Z,10.40
2023-12-13T01:47:55.500Z,12.10
2023-12-13T01:50:25.764Z,13.40
2023-12-13T01:52:53.039Z,12.63
2023-12-13T01:55:19.832Z,10.13
2023-12-13T01:57:46.922Z,14.07
2023-12-13T02:00:14.779Z,13.10
2023-12-13T02:02:41.762Z,17.75
2023-12-13T02:05:08.960Z,12.57
2023-12-13T02:07:36.114Z,11.80
2023-12-13T02:10:02.855Z,14.95
2023-12-13T02:12:29.480Z,15.30
2023-12-13T02:14:56.658Z,13.98
2023-12-13T02:17:23.783Z,20.88
2023-12-13T02:19:50.362Z,19.55
2023-12-13T02:22:16.918Z,17.02
2023-12-13T02:24:44.107Z,17.42
2023-12-13T02:27:10.760Z,16.77
2023-12-13T02:29:37.412Z,18.77
2023-12-13T02:32:04.135Z,25.33
2023-12-13T02:34:30.765Z,18.42
2023-12-13T02:36:57.424Z,15.88
2023-12-13T02:39:23.971Z,18.58
2023-12-13T02:41:50.626Z,16.80
2023-12-13T02:44:17.238Z,14.73
2023-12-13T02:46:43.878Z,17.10
2023-12-13T02:49:10.637Z,16.77
2023-12-13T02:51:37.220Z,19.85
2023-12-13T02:54:03.861Z,16.98
2023-12-13T02:56:30.408Z,18.48
2023-12-13T02:58:56.996Z,16.40
2023-12-13T03:01:23.696Z,19.17
2023-12-13T03:03:50.345Z,12.48
2023-12-13T03:06:16.958Z,15.10
2023-12-13T03:08:43.489Z,17.27
2023-12-13T03:11:11.669Z,18.35
2023-12-13T03:13:38.347Z,21.58
2023-12-13T03:16:07.326Z,17.60
2023-12-13T03:18:34.407Z,14.48
2023-12-13T03:21:00.987Z,21.40
2023-12-13T03:23:27.505Z,18.85
2023-12-13T03:25:54.143Z,13.05
2023-12-13T03:28:20.716Z,17.27
2023-12-13T03:30:47.390Z,18.23
2023-12-13T03:33:14.038Z,17.27
2023-12-13T03:35:40.648Z,20.15
2023-12-13T03:38:07.606Z,17.08
2023-12-13T03:40:34.226Z,11.52
2023-12-13T03:43:02.097Z,19.58
2023-12-13T03:45:28.772Z,17.90
2023-12-13T03:47:55.540Z,21.15
2023-12-13T03:50:22.565Z,15.25
2023-12-13T03:52:49.296Z,22.48
2023-12-13T03:55:16.102Z,18.98
2023-12-13T03:57:42.711Z,16.83
2023-12-13T04:00:09.713Z,22.67
2023-12-13T04:02:36.476Z,20.02
2023-12-13T04:05:03.138Z,20.90
2023-12-13T04:07:29.848Z,20.73
2023-12-13T04:09:56.384Z,20.75
2023-12-13T04:12:22.985Z,20.95
2023-12-13T04:14:50.025Z,21.20
2023-12-13T04:17:16.583Z,16.40
2023-12-13T04:19:43.156Z,22.33
2023-12-13T04:22:09.830Z,21.70
2023-12-13T04:24:36.401Z,22.85
2023-12-13T04:27:03.318Z,24.48
2023-12-13T04:29:29.884Z,25.40
2023-12-13T04:31:56.485Z,22.20
2023-12-13T04:34:23.101Z,23.17
2023-12-13T04:36:49.734Z,23.55
2023-12-13T04:39:16.256Z,27.05
2023-12-13T04:41:43.421Z,27.00
2023-12-13T04:44:12.849Z,26.10
2023-12-13T04:46:40.929Z,18.50
2023-12-13T04:49:07.623Z,30.45
2023-12-13T04:51:34.173Z,22.48
2023-12-13T04:54:00.797Z,19.77
2023-12-13T04:56:27.398Z,21.25
2023-12-13T04:58:54.461Z,20.27
2023-12-13T05:01:21.068Z,24.30
2023-12-13T05:03:47.692Z,23.08
2023-12-13T05:06:15.822Z,26.20
2023-12-13T05:08:42.387Z,29.05
2023-12-13T05:11:08.934Z,20.10
2023-12-13T05:13:35.652Z,20.08
2023-12-13T05:16:02.395Z,25.15
2023-12-13T05:18:28.927Z,22.60
2023-12-13T05:20:55.481Z,24.65
2023-12-13T05:23:22.220Z,22.55
2023-12-13T05:25:48.805Z,29.92
2023-12-13T05:28:15.349Z,32.83
2023-12-13T05:30:42.943Z,27.00
2023-12-13T05:33:09.872Z,21.98
2023-12-13T05:35:36.830Z,32.22
2023-12-13T05:38:03.462Z,27.10
2023-12-13T05:40:30.216Z,31.58
2023-12-13T05:42:57.078Z,24.67
2023-12-13T05:45:23.722Z,27.65
2023-12-13T05:47:50.442Z,27.67
2023-12-13T05:50:20.093Z,27.92
2023-12-13T05:52:46.804Z,29.23
2023-12-13T05:55:13.581Z,30.77
2023-12-13T05:57:40.124Z,31.75
2023-12-13T06:00:08.368Z,27.10
2023-12-13T06:02:38.114Z,25.67
2023-12-13T06:05:21.542Z,24.75
2023-12-13T06:07:48.162Z,29.23
2023-12-13T06:10:14.839Z,37.20
2023-12-13T06:12:41.413Z,32.60
2023-12-13T06:15:08.415Z,26.48
2023-12-13T06:17:35.173Z,27.70
2023-12-13T06:20:02.195Z,34.47
2023-12-13T06:22:28.950Z,33.00
2023-12-13T06:24:55.504Z,28.02
2023-12-13T06:27:22.069Z,26.98
2023-12-13T06:29:48.718Z,35.28
2023-12-13T06:32:15.271Z,31.73
2023-12-13T06:34:42.286Z,29.75
2023-12-13T06:37:09.050Z,34.80
2023-12-13T06:39:35.645Z,31.13
2023-12-13T06:42:02.198Z,34.33
2023-12-13T06:44:28.839Z,25.40
2023-12-13T06:46:55.569Z,27.35
2023-12-13T06:49:23.957Z,29.15
2023-12-13T06:56:46.646Z,27.35
2023-12-13T06:59:13.247Z,26.55
2023-12-13T07:01:41.418Z,30.35
2023-12-13T07:04:08.163Z,34.13
2023-12-13T07:06:34.797Z,29.95
2023-12-13T07:09:01.487Z,29.92
2023-12-13T07:11:30.075Z,34.75
2023-12-13T07:13:57.323Z,28.67
2023-12-13T07:16:24.398Z,37.22
2023-12-13T07:18:53.338Z,33.85
2023-12-13T07:21:20.396Z,30.23
2023-12-13T07:23:47.540Z,28.25
2023-12-13T07:26:15.349Z,34.05
2023-12-13T07:28:41.903Z,36.15
2023-12-13T07:31:10.234Z,37.35
2023-12-13T07:33:39.939Z,33.22
2023-12-13T07:36:07.013Z,31.05
2023-12-13T07:38:33.660Z,41.00
2023-12-13T07:41:00.392Z,34.92
2023-12-13T07:43:28.242Z,37.83
2023-12-13T07:45:55.956Z,38.42
2023-12-13T07:48:28.824Z,36.25
2023-12-13T07:50:58.134Z,31.50
2023-12-13T07:53:24.921Z,32.58
2023-12-13T07:55:51.736Z,35.30
2023-12-13T07:58:19.628Z,31.95
2023-12-13T08:00:46.741Z,40.13
2023-12-13T08:03:13.593Z,39.55
2023-12-13T08:05:40.207Z,37.58
2023-12-13T08:08:06.833Z,36.58
2023-12-13T08:10:33.525Z,34.00
2023-12-13T08:13:00.489Z,28.23
2023-12-13T08:15:27.922Z,31.63
2023-12-13T08:17:54.747Z,30.15
2023-12-13T08:20:21.455Z,30.75
2023-12-13T08:22:48.137Z,30.98
2023-12-13T08:25:14.905Z,30.85
2023-12-13T08:27:41.573Z,25.13
2023-12-13T08:30:08.873Z,35.70
2023-12-13T08:32:35.463Z,33.05
2023-12-13T08:35:02.091Z,31.48
2023-12-13T08:37:28.716Z,25.98
2023-12-13T08:39:55.270Z,26.13
2023-12-13T08:42:23.397Z,31.67
2023-12-13T08:44:51.118Z,29.52
2023-12-13T08:47:17.734Z,33.85
2023-12-13T08:49:47.420Z,27.25
2023-12-13T08:52:16.605Z,29.95
2023-12-13T08:54:43.574Z,25.10
2023-12-13T08:57:10.135Z,30.13
2023-12-13T08:59:36.747Z,34.53
2023-12-13T09:02:03.664Z,36.15
2023-12-13T09:04:30.226Z,34.38
2023-12-13T09:06:57.115Z,30.77
2023-12-13T09:09:23.704Z,35.55
2023-12-13T09:11:50.309Z,35.13
2023-12-13T09:14:16.947Z,35.13
2023-12-13T09:16:43.689Z,28.15
2023-12-13T09:19:10.307Z,34.40
2023-12-13T09:21:36.962Z,34.88
2023-12-13T09:24:03.659Z,31.48
2023-12-13T09:26:30.362Z,31.02
2023-12-13T09:28:57.835Z,41.75
2023-12-13T09:31:25.697Z,35.95
2023-12-13T09:33:53.802Z,31.48
2023-12-13T09:36:20.980Z,34.22
2023-12-13T09:38:48.018Z,32.17
2023-12-13T09:41:29.721Z,33.75
2023-12-13T09:43:56.927Z,37.72
2023-12-13T09:46:24.110Z,33.47
2023-12-13T09:48:51.528Z,32.35
2023-12-13T09:51:22.557Z,41.67
2023-12-13T09:53:51.875Z,33.88
2023-12-13T09:56:19.973Z,24.45
2023-12-13T09:58:46.567Z,33.28
2023-12-13T10:01:15.368Z,32.05
2023-12-13T10:03:42.030Z,33.35
2023-12-13T10:06:08.688Z,29.52
2023-12-13T10:08:36.332Z,32.85
2023-12-13T10:11:04.351Z,29.52
2023-12-13T10:13:31.070Z,26.58
2023-12-13T10:15:57.635Z,27.77
2023-12-13T10:18:24.292Z,24.98
2023-12-13T10:20:50.900Z,24.90
2023-12-13T10:23:17.607Z,26.88
2023-12-13T10:25:44.285Z,23.35
2023-12-13T10:28:12.952Z,25.63
2023-12-13T10:30:40.437Z,28.23
2023-12-13T10:33:07.224Z,21.50
2023-12-13T10:35:34.150Z,24.73
2023-12-13T10:38:03.462Z,27.42
2023-12-13T10:40:30.091Z,25.00
2023-12-13T10:42:57.527Z,22.02
2023-12-13T10:45:25.325Z,29.92
2023-12-13T10:47:56.269Z,22.90
2023-12-13T10:50:23.511Z,26.17
2023-12-13T10:52:51.629Z,36.53
2023-12-13T10:55:19.817Z,29.05
2023-12-13T10:57:46.451Z,25.58
2023-12-13T11:00:15.165Z,34.00
2023-12-13T11:03:01.414Z,26.15
2023-12-13T11:05:28.046Z,25.98
2023-12-13T11:07:54.708Z,23.27
2023-12-13T11:10:23.792Z,23.83
2023-12-13T11:12:54.462Z,25.63
2023-12-13T11:15:21.197Z,25.63
2023-12-13T11:17:51.018Z,29.00
2023-12-13T11:20:19.669Z,29.80
2023-12-13T11:22:51.556Z,28.40
2023-12-13T11:25:18.752Z,22.42
2023-12-13T11:27:52.599Z,25.85
2023-12-13T11:30:21.031Z,34.50
2023-12-13T11:35:17.752Z,35.53
2023-12-13T11:37:53.334Z,26.42
2023-12-13T11:40:20.703Z,27.25
2023-12-13T11:42:53.311Z,24.33
2023-12-13T11:45:21.076Z,29.50
2023-12-13T11:47:51.385Z,26.83
2023-12-13T11:50:21.072Z,32.45
2023-12-13T11:52:48.159Z,28.80
2023-12-13T11:55:18.931Z,25.35
2023-12-13T11:57:50.993Z,29.67
2023-12-13T12:00:21.423Z,27.02
2023-12-13T12:02:48.326Z,30.35
2023-12-13T12:05:15.021Z,31.17
2023-12-13T12:07:41.762Z,27.90
2023-12-13T12:10:08.990Z,33.03
2023-12-13T12:12:37.543Z,32.83
2023-12-13T12:17:34.235Z,28.45
2023-12-13T12:20:01.718Z,22.45
2023-12-13T12:22:29.061Z,26.67
2023-12-13T12:24:55.836Z,19.70
2023-12-13T12:27:26.183Z,29.05
2023-12-13T12:29:53.580Z,25.85
2023-12-13T12:32:20.633Z,27.33
2023-12-13T12:34:49.051Z,33.03
2023-12-13T12:37:16.401Z,28.77
2023-12-13T12:39:42.977Z,32.88
2023-12-13T12:42:09.635Z,27.25
2023-12-13T12:44:36.297Z,30.58
2023-12-13T12:47:04.778Z,26.85
2023-12-13T12:49:31.466Z,32.75
2023-12-13T12:51:58.073Z,28.80
2023-12-13T12:54:24.683Z,28.67
2023-12-13T12:56:52.204Z,28.83
2023-12-13T12:59:18.982Z,30.05
2023-12-13T13:01:46.114Z,29.27
2023-12-13T13:04:15.172Z,35.35
2023-12-13T13:06:43.022Z,30.67
2023-12-13T13:09:09.657Z,31.27
2023-12-13T13:11:36.505Z,28.08
2023-12-13T13:14:04.753Z,29.85
2023-12-13T13:16:33.616Z,33.53
2023-12-13T13:19:00.659Z,27.23
2023-12-13T13:21:27.976Z,30.50
2023-12-13T13:23:54.717Z,31.42
2023-12-13T13:26:21.663Z,35.38
2023-12-13T13:28:49.035Z,33.90
2023-12-13T13:31:16.442Z,37.95
2023-12-13T13:33:45.330Z,30.55
2023-12-13T13:36:13.615Z,29.13
2023-12-13T13:38:40.442Z,33.55
2023-12-13T13:41:08.605Z,26.30
2023-12-13T13:43:35.846Z,31.45
2023-12-13T13:46:02.621Z,30.25
2023-12-13T13:48:29.329Z,34.38
2023-12-13T13:50:55.912Z,31.00
2023-12-13T13:53:22.519Z,30.35
2023-12-13T13:55:49.215Z,32.10
2023-12-13T13:58:15.892Z,32.22
2023-12-13T14:00:42.464Z,28.02
2023-12-13T14:03:09.077Z,33.33
2023-12-13T14:05:36.660Z,31.50
2023-12-13T14:08:04.346Z,33.15
2023-12-13T14:10:31.619Z,33.75
2023-12-13T14:12:58.195Z,30.67
2023-12-13T14:15:24.885Z,31.60
2023-12-13T14:17:51.591Z,32.35
2023-12-13T14:20:18.696Z,36.75
2023-12-13T14:22:45.331Z,35.22
2023-12-13T14:25:11.920Z,42.60
2023-12-13T14:27:38.478Z,36.03
2023-12-13T14:30:05.761Z,38.60
2023-12-13T14:32:32.723Z,34.67
2023-12-13T14:34:59.553Z,34.70
2023-12-13T14:37:26.765Z,37.38
2023-12-13T14:39:53.364Z,31.98
2023-12-13T14:42:19.923Z,32.53
2023-12-13T14:44:46.508Z,38.03
2023-12-13T14:47:13.068Z,36.50
2023-12-13T14:49:39.689Z,42.58
2023-12-13T14:52:06.335Z,35.28
2023-12-13T14:54:32.932Z,31.23
2023-12-13T14:57:00.570Z,32.83
2023-12-13T14:59:27.147Z,32.95
2023-12-13T15:01:53.734Z,33.05
2023-12-13T15:04:20.283Z,32.40
2023-12-13T15:06:47.031Z,39.80
2023-12-13T15:09:13.699Z,31.92
2023-12-13T15:11:40.273Z,35.83
2023-12-13T15:14:06.950Z,35.40
2023-12-13T15:16:33.604Z,36.65
2023-12-13T15:19:01.725Z,39.05
2023-12-13T15:21:29.563Z,39.22
2023-12-13T15:23:56.192Z,36.90
2023-12-13T15:26:22.988Z,36.67
2023-12-13T15:28:49.759Z,37.22
2023-12-13T15:31:16.432Z,39.75
2023-12-13T15:33:43.224Z,42.78
2023-12-13T15:36:10.085Z,35.30
2023-12-13T15:38:38.301Z,40.17
2023-12-13T15:41:04.950Z,40.50
2023-12-13T15:43:31.588Z,33.17
2023-12-13T15:46:01.069Z,35.90
2023-12-13T15:48:27.861Z,31.25
2023-12-13T15:50:54.573Z,30.75
2023-12-13T15:53:22.315Z,34.78
2023-12-13T15:55:49.232Z,33.72
2023-12-13T15:58:15.928Z,31.95
2023-12-13T16:00:42.559Z,31.85
2023-12-13T16:03:09.214Z,34.90
2023-12-13T16:05:36.012Z,33.70
2023-12-13T16:08:02.763Z,38.22
2023-12-13T16:10:29.657Z,33.38
2023-12-13T16:12:56.348Z,39.65
2023-12-13T16:15:26.460Z,34.90
2023-12-13T16:17:53.143Z,39.78
2023-12-13T16:20:19.986Z,34.33
2023-12-13T16:22:47.601Z,38.30
2023-12-13T16:25:15.403Z,43.28
2023-12-13T16:27:42.987Z,42.17
2023-12-13T16:30:10.328Z,37.63
2023-12-13T16:32:37.178Z,39.30
2023-12-13T16:35:04.229Z,36.60
2023-12-13T16:37:34.894Z,37.22
2023-12-13T16:40:01.731Z,31.73
2023-12-13T16:42:28.791Z,32.97
2023-12-13T16:44:55.388Z,28.90
2023-12-13T16:47:21.977Z,30.75
2023-12-13T16:49:48.658Z,30.20
2023-12-13T16:52:15.805Z,31.33
2023-12-13T16:54:43.917Z,31.27
2023-12-13T16:57:12.430Z,36.10
2023-12-13T16:59:39.147Z,32.95
2023-12-13T17:02:07.753Z,31.92
2023-12-13T17:04:34.451Z,38.50
2023-12-13T17:07:01.552Z,35.47
2023-12-13T17:09:28.105Z,44.42
2023-12-13T17:11:55.236Z,39.13
2023-12-13T17:14:21.806Z,41.60
2023-12-13T17:16:48.426Z,35.60
2023-12-13T17:19:19.150Z,35.20
2023-12-13T17:21:46.425Z,39.05
2023-12-13T17:24:13.732Z,44.72
2023-12-13T17:26:40.307Z,38.45
2023-12-13T17:29:06.993Z,42.10
2023-12-13T17:31:33.729Z,39.97
2023-12-13T17:34:00.465Z,40.50
2023-12-13T17:36:27.629Z,40.25
2023-12-13T17:38:54.307Z,44.75
2023-12-13T17:41:20.942Z,48.28
2023-12-13T17:43:47.552Z,49.35
2023-12-13T17:46:14.169Z,48.85
2023-12-13T17:48:40.817Z,50.58
2023-12-13T17:51:07.484Z,49.30
2023-12-13T17:53:40.212Z,53.20
2023-12-13T17:56:08.718Z,50.33
2023-12-13T17:58:36.104Z,54.25
2023-12-13T18:01:02.822Z,52.47
2023-12-13T18:03:29.428Z,48.03
2023-12-13T18:05:56.111Z,53.60
2023-12-13T18:08:22.711Z,58.10
2023-12-13T18:10:49.283Z,52.63
2023-12-13T18:13:18.381Z,54.15
2023-12-13T18:15:47.874Z,53.58
2023-12-13T18:18:14.726Z,54.80
2023-12-13T18:20:41.341Z,53.38
2023-12-13T18:23:07.909Z,49.70
2023-12-13T18:25:34.516Z,47.03
2023-12-13T18:28:01.115Z,53.08
2023-12-13T18:30:27.722Z,53.90
2023-12-13T18:32:54.492Z,47.80
2023-12-13T18:35:21.330Z,55.17
2023-12-13T18:37:48.176Z,57.38
2023-12-13T18:40:15.099Z,57.60
2023-12-13T18:42:42.016Z,58.20
2023-12-13T18:45:10.579Z,59.90
2023-12-13T18:50:04.147Z,52.03
2023-12-13T18:52:30.895Z,55.67
2023-12-13T18:54:57.716Z,62.35
2023-12-13T18:57:24.317Z,63.50
2023-12-13T18:59:50.923Z,63.40
2023-12-13T19:02:17.565Z,64.97
2023-12-13T19:04:44.318Z,66.60
2023-12-13T19:07:12.680Z,63.53
2023-12-13T19:09:39.369Z,69.57
2023-12-13T19:12:06.221Z,83.32
2023-12-13T19:14:32.823Z,78.20
2023-12-13T19:16:59.530Z,70.90
2023-12-13T19:19:26.306Z,81.75
2023-12-13T19:21:52.991Z,73.28
2023-12-13T19:24:19.569Z,81.00
2023-12-13T19:26:46.507Z,77.45
2023-12-13T19:29:16.397Z,74.95
2023-12-13T19:31:45.490Z,77.55
2023-12-13T19:34:20.025Z,74.97
2023-12-13T19:36:53.497Z,80.00
2023-12-13T19:39:20.063Z,80.15
2023-12-13T19:41:46.627Z,81.13
2023-12-13T19:44:13.228Z,78.45
2023-12-13T19:46:39.841Z,80.80
2023-12-13T19:49:06.415Z,75.95
2023-12-13T19:51:33.034Z,78.82
2023-12-13T19:53:59.569Z,79.38
2023-12-13T19:56:26.538Z,77.28
2023-12-13T19:58:54.135Z,80.97
2023-12-13T20:01:20.794Z,78.32
2023-12-13T20:03:48.816Z,77.93
2023-12-13T20:06:19.101Z,78.13
2023-12-13T20:08:45.662Z,73.95
2023-12-13T20:11:12.264Z,78.45
2023-12-13T20:13:49.759Z,79.55
2023-12-13T20:16:20.469Z,75.95
2023-12-13T20:18:48.302Z,83.20
2023-12-13T20:21:15.229Z,75.15
2023-12-13T20:23:42.165Z,74.53
2023-12-13T20:26:08.860Z,71.80
2023-12-13T20:28:36.352Z,66.45
2023-12-13T20:31:03.017Z,65.45
2023-12-13T20:33:29.780Z,68.13
2023-12-13T20:35:57.771Z,72.22
2023-12-13T20:38:24.838Z,64.30
2023-12-13T20:40:51.936Z,63.60
2023-12-13T20:43:20.912Z,64.50
2023-12-13T20:45:47.521Z,59.53
2023-12-13T20:48:14.121Z,65.85
2023-12-13T20:50:41.249Z,60.20
2023-12-13T20:53:08.013Z,62.67
2023-12-13T20:55:37.460Z,61.88
2023-12-13T20:58:04.207Z,64.07
2023-12-13T21:00:30.820Z,59.90
2023-12-13T21:02:57.443Z,53.20
2023-12-13T21:05:24.095Z,50.97
2023-12-13T21:07:50.736Z,52.40
2023-12-13T21:10:17.410Z,50.17
2023-12-13T21:12:44.334Z,46.80
2023-12-13T21:15:14.324Z,45.30
2023-12-13T21:17:41.420Z,50.08
2023-12-13T21:20:09.061Z,45.50
2023-12-13T21:22:35.930Z,44.58
2023-12-13T21:25:02.949Z,41.17
2023-12-13T21:27:29.551Z,40.20
2023-12-13T21:29:56.089Z,39.60
2023-12-13T21:32:22.909Z,38.90
2023-12-13T21:34:49.559Z,40.05
2023-12-13T21:37:16.206Z,37.35
2023-12-13T21:39:42.815Z,36.50
2023-12-13T21:42:09.742Z,38.00
2023-12-13T21:44:36.785Z,35.72
2023-12-13T21:47:03.828Z,35.05
2023-12-13T21:49:30.632Z,34.20
2023-12-13T21:51:57.272Z,32.75
2023-12-13T21:54:23.886Z,34.60
2023-12-13T21:56:50.459Z,38.50
2023-12-13T21:59:17.032Z,34.60
2023-12-13T22:01:43.777Z,35.13
2023-12-13T22:04:10.434Z,34.08
2023-12-13T22:06:37.122Z,34.60
2023-12-13T22:09:03.793Z,34.17
2023-12-13T22:11:30.409Z,35.83
2023-12-13T22:13:57.032Z,39.33
2023-12-13T22:16:23.677Z,37.63
2023-12-13T22:19:10.886Z,37.28
2023-12-13T22:21:38.670Z,30.30
2023-12-13T22:24:05.752Z,32.60
2023-12-13T22:26:32.244Z,35.63
2023-12-13T22:28:58.852Z,36.83
2023-12-13T22:31:25.580Z,32.90
2023-12-13T22:33:52.228Z,35.35
2023-12-13T22:36:18.899Z,32.67
2023-12-13T22:38:45.484Z,32.72
2023-12-13T22:41:12.071Z,33.75
2023-12-13T22:43:38.802Z,31.05
2023-12-13T22:46:05.486Z,31.88
2023-12-13T22:48:32.148Z,28.83
2023-12-13T22:50:58.714Z,32.53
2023-12-13T22:53:25.262Z,32.30
2023-12-13T22:55:51.849Z,33.25
2023-12-13T22:58:18.471Z,27.90
2023-12-13T23:00:45.075Z,28.52
2023-12-13T23:03:11.819Z,29.75
2023-12-13T23:05:38.562Z,27.15
2023-12-13T23:08:05.422Z,27.10
2023-12-13T23:10:32.038Z,33.45
2023-12-13T23:12:58.633Z,27.25
2023-12-13T23:15:25.233Z,26.60
2023-12-13T23:17:52.082Z,25.80
2023-12-13T23:20:18.865Z,25.55
2023-12-13T23:22:45.650Z,27.23
2023-12-13T23:25:12.226Z,23.88
2023-12-13T23:27:39.364Z,25.45
2023-12-13T23:30:07.043Z,21.52
2023-12-13T23:32:34.016Z,23.00
2023-12-13T23:35:00.895Z,21.70
2023-12-13T23:37:27.507Z,21.67
2023-12-13T23:39:54.249Z,20.20
2023-12-13T23:42:20.807Z,21.30
2023-12-13T23:44:47.448Z,19.70
2023-12-13T23:47:14.082Z,23.95
2023-12-13T23:49:40.637Z,19.55
2023-12-13T23:52:07.220Z,21.77
2023-12-13T23:54:36.458Z,20.95
2023-12-13T23:57:02.997Z,22.23
2023-12-13T23:59:29.579Z,22.58
